Overview Statistics Trail Chart Weather Telemetry Raw packets
 

This is the latest recevied weather packets stored in our database for station/object KW4UJ. If no packets are shown the sender has not sent any weather packets the latest 10 day(s).

<< 72 73 74 75 76 77 78 >>
Time Temp. Humidity Pressure Rain* Wind** Luminosity Snow
1788113124 30° C 67% 1020.5 hPa 0 mm - 605 W/m² -
1788112823 30° C 67% 1020.5 hPa 0 mm - 612 W/m² -
1788112522 29.44° C 71% 1020.6 hPa 0 mm - 439 W/m² -
1788112218 28.89° C 71% 1020.7 hPa 0 mm - 601 W/m² -
1788111914 28.89° C 73% 1021 hPa 0 mm - 601 W/m² -
1788111614 28.89° C 71% 1020.9 hPa 0 mm - 675 W/m² -
1788111310 27.78° C 73% 1021 hPa 0 mm - 260 W/m² -
1788111010 27.78° C 74% 1021.3 hPa 0 mm - 298 W/m² -
1788110706 27.78° C 76% 1021.2 hPa 0 mm - 379 W/m² -
1788110402 27.22° C 76% 1021.2 hPa 0 mm - 402 W/m² -
1788110097 27.22° C 77% 1021.4 hPa 0 mm - 211 W/m² -
1788109792 27.22° C 77% 1021.3 hPa 0 mm - 167 W/m² -
1788109492 27.22° C 77% 1021.4 hPa 0 mm - 162 W/m² -
1788109190 27.22° C 76% 1021.6 hPa 0 mm - 207 W/m² -
1788108887 27.22° C 76% 1021.5 hPa 0 mm - 208 W/m² -
1788108582 27.22° C 75% 1021.5 hPa 0 mm - 181 W/m² -
1788108278 27.22° C 76% 1021.8 hPa 0 mm - 183 W/m² -
1788107974 27.78° C 75% 1021.6 hPa 0 mm - 160 W/m² -
1788107671 27.78° C 75% 1021.7 hPa 0 mm - 191 W/m² -
1788107370 27.78° C 75% 1021.7 hPa 0 mm - 316 W/m² -
1788107066 27.22° C 77% 1021.8 hPa 0 mm - 216 W/m² -
1788106766 27.22° C 76% 1021.7 hPa 0 mm - 225 W/m² -
1788106465 27.22° C 76% 1021.8 hPa 0 mm - 192 W/m² -
1788106160 27.78° C 75% 1021.9 hPa 0 mm - 196 W/m² -
1788105857 27.78° C 76% 1021.9 hPa 0 mm - 213 W/m² -

* Rain latest hour (hover to see other rain measurements)
** Current wind speed in m/s (hover to see current wind gust speed)